Time;durP1;ratioP1;P1;durP2;ratioP2;P2;SDS_P1;SDS_P2;PMS_P1;PMS_P2;Temp;Humidity;BMP_temperature;BMP_pressure;BME280_temperature;BME280_humidity;BME280_pressure;Samples;Min_cycle;Max_cycle;Signal;HPM_P1;HPM_P2
2022/11/03 00:00:08;;;;;;;7.00;4.80;;;;;;;8.98;nan;99879.13;4964181;28;20243;-82
2022/11/03 00:02:37;;;;;;;8.05;4.38;;;;;;;9.00;nan;99874.66;4963881;28;20462;-82
2022/11/03 00:06:03;;;;;;;11.20;5.23;;;;;;;9.03;nan;99866.63;4965924;28;20332;-81
2022/11/03 00:07:48;;;;;;;9.48;4.63;;;;;;;9.05;nan;99868.25;4968296;28;20227;-83
2022/11/03 00:10:13;;;;;;;10.70;4.90;;;;;;;9.07;nan;99871.66;4964262;28;20213;-81
2022/11/03 00:12:39;;;;;;;5.50;3.63;;;;;;;9.09;nan;99874.16;4966449;28;20235;-82
2022/11/03 00:15:04;;;;;;;6.40;4.87;;;;;;;9.08;nan;99873.31;4967948;28;20232;-82
2022/11/03 00:17:30;;;;;;;5.73;4.63;;;;;;;9.07;nan;99876.88;4966355;28;20583;-82
2022/11/03 00:19:55;;;;;;;6.60;3.83;;;;;;;9.01;nan;99882.44;4965525;28;20243;-81
2022/11/03 00:22:21;;;;;;;7.20;4.40;;;;;;;8.90;nan;99879.53;4966497;28;20236;-81
2022/11/03 00:24:49;;;;;;;8.07;4.53;;;;;;;8.78;nan;99874.94;4966146;28;20205;-81
2022/11/03 00:27:14;;;;;;;4.68;4.10;;;;;;;8.68;nan;99884.19;4965137;28;20200;-81
2022/11/03 00:29:40;;;;;;;5.23;4.70;;;;;;;8.62;nan;99880.97;4968892;28;20220;-81
2022/11/03 00:32:05;;;;;;;3.43;3.13;;;;;;;8.60;nan;99877.56;4967446;28;20232;-80
2022/11/03 00:34:30;;;;;;;5.35;4.85;;;;;;;8.63;nan;99872.19;4963223;28;20507;-80
2022/11/03 00:36:56;;;;;;;8.23;4.30;;;;;;;8.66;nan;99880.81;4963892;28;20207;-80
2022/11/03 00:39:21;;;;;;;4.20;3.80;;;;;;;8.67;nan;99874.63;4967649;28;20240;-81
2022/11/03 00:41:46;;;;;;;4.83;3.57;;;;;;;8.64;nan;99873.00;4966714;28;20319;-80
2022/11/03 00:44:12;;;;;;;6.07;3.57;;;;;;;8.60;nan;99874.97;4964164;28;20733;-80
2022/11/03 00:46:37;;;;;;;10.43;4.63;;;;;;;8.59;nan;99870.66;4966776;28;20204;-80
2022/11/03 00:49:04;;;;;;;4.37;3.97;;;;;;;8.56;nan;99876.06;4965803;28;20864;-81
2022/11/03 00:51:29;;;;;;;4.38;3.13;;;;;;;8.56;nan;99864.72;4968691;28;20208;-81
2022/11/03 00:53:57;;;;;;;2.70;2.40;;;;;;;8.56;nan;99873.44;4964192;28;20613;-81
2022/11/03 00:56:28;;;;;;;6.10;4.03;;;;;;;8.52;nan;99864.03;4964509;28;20208;-81
2022/11/03 00:58:56;;;;;;;3.88;3.33;;;;;;;8.51;nan;99862.34;4966292;28;20263;-80
2022/11/03 01:01:26;;;;;;;4.47;3.83;;;;;;;8.51;nan;99862.34;4963621;28;20444;-80
2022/11/03 01:06:50;;;;;;;5.20;3.30;;;;;;;8.51;nan;99870.19;4280197;28;10001749;-80
2022/11/03 01:09:21;;;;;;;5.20;4.10;;;;;;;8.51;nan;99862.34;4965836;28;20295;-80
2022/11/03 01:12:00;;;;;;;3.40;3.10;;;;;;;8.51;nan;99861.50;4965796;28;20228;-80
2022/11/03 01:14:31;;;;;;;3.92;3.60;;;;;;;8.50;nan;99860.63;4963954;28;20629;-80
2022/11/03 01:16:56;;;;;;;6.43;3.97;;;;;;;8.48;nan;99854.66;4963438;28;20205;-81
2022/11/03 01:19:22;;;;;;;7.30;4.03;;;;;;;8.49;nan;99856.34;4961119;28;20591;-80
2022/11/03 01:21:48;;;;;;;4.60;3.53;;;;;;;8.50;nan;99852.78;4964020;28;20239;-81
2022/11/03 01:24:13;;;;;;;6.00;5.30;;;;;;;8.50;nan;99844.09;4965062;28;20205;-81
2022/11/03 01:26:39;;;;;;;5.13;3.10;;;;;;;8.47;nan;99839.00;4967067;28;20262;-82
2022/11/03 01:29:04;;;;;;;4.63;3.63;;;;;;;8.46;nan;99837.34;4964245;28;20223;-81
2022/11/03 01:31:30;;;;;;;5.37;3.83;;;;;;;8.40;nan;99835.88;4967789;28;20289;-81
2022/11/03 01:33:56;;;;;;;4.47;3.63;;;;;;;8.33;nan;99840.53;4966883;28;20247;-82
2022/11/03 01:36:23;;;;;;;5.32;2.60;;;;;;;8.30;nan;99837.22;4963332;28;20308;-82
2022/11/03 01:38:48;;;;;;;6.28;3.70;;;;;;;8.26;nan;99838.28;4965832;28;20219;-82
2022/11/03 01:41:20;;;;;;;4.43;3.23;;;;;;;8.18;nan;99834.31;4967881;28;20355;-81
2022/11/03 01:43:49;;;;;;;4.35;3.20;;;;;;;8.08;nan;99824.38;4963085;28;20286;-82
2022/11/03 01:46:26;;;;;;;5.65;3.65;;;;;;;8.01;nan;99826.44;4966768;28;20208;-82
2022/11/03 01:48:59;;;;;;;13.27;3.35;;;;;;;7.95;nan;99817.13;4968046;28;20312;-81
2022/11/03 01:51:28;;;;;;;6.53;3.70;;;;;;;7.93;nan;99805.88;4966761;28;20204;-82
2022/11/03 01:53:57;;;;;;;5.03;4.38;;;;;;;7.91;nan;99812.13;4970516;28;20228;-82
2022/11/03 01:56:24;;;;;;;4.70;3.03;;;;;;;7.88;nan;99796.56;4970808;28;20300;-82
2022/11/03 01:58:53;;;;;;;5.32;4.18;;;;;;;7.88;nan;99796.56;4967835;28;20209;-82
2022/11/03 02:01:19;;;;;;;5.13;3.30;;;;;;;7.85;nan;99796.72;4934507;28;20212;-82
2022/11/03 02:03:53;;;;;;;6.93;4.43;;;;;;;7.80;nan;99796.94;4929178;29;20500;-81
2022/11/03 02:06:22;;;;;;;7.17;4.50;;;;;;;7.79;nan;99786.59;4586523;29;10000726;-82
2022/11/03 02:08:55;;;;;;;6.15;3.05;;;;;;;7.78;nan;99787.50;4928194;29;20214;-81
2022/11/03 02:14:10;;;;;;;6.32;4.20;;;;;;;7.72;nan;99773.81;4930938;29;20237;-82
2022/11/03 02:16:36;;;;;;;4.15;2.83;;;;;;;7.71;nan;99768.66;4930331;29;20217;-81
2022/11/03 02:19:06;;;;;;;6.60;4.00;;;;;;;7.71;nan;99766.03;4926527;29;21171;-81
2022/11/03 02:21:47;;;;;;;6.47;4.00;;;;;;;7.73;nan;99754.59;4911740;29;20469;-81
2022/11/03 02:24:52;;;;;;;7.18;3.80;;;;;;;7.75;nan;99750.13;4927948;29;20205;-81
2022/11/03 02:27:19;;;;;;;9.25;4.57;;;;;;;7.79;nan;99742.13;4926499;29;20225;-80
2022/11/03 02:29:45;;;;;;;7.75;3.70;;;;;;;7.81;nan;99742.91;4941691;29;20194;-80
2022/11/03 02:32:19;;;;;;;5.47;3.47;;;;;;;7.83;nan;99733.19;4929630;29;20229;-80
2022/11/03 02:35:11;;;;;;;4.85;4.40;;;;;;;7.90;nan;99727.59;4928085;29;20485;-80
2022/11/03 02:37:42;;;;;;;6.03;4.03;;;;;;;7.94;nan;99720.44;4910661;29;20301;-81
2022/11/03 02:40:22;;;;;;;4.78;3.33;;;;;;;7.98;nan;99719.34;4928359;29;20277;-81
2022/11/03 02:42:51;;;;;;;5.07;4.32;;;;;;;8.00;nan;99714.88;4926711;29;20538;-80
2022/11/03 02:45:20;;;;;;;4.13;3.25;;;;;;;8.03;nan;99714.72;4928395;29;20442;-80
2022/11/03 02:47:48;;;;;;;3.95;2.75;;;;;;;8.05;nan;99701.59;4924771;29;20231;-80
2022/11/03 02:50:13;;;;;;;3.85;2.63;;;;;;;8.04;nan;99705.94;4932798;29;20232;-80
2022/11/03 02:52:43;;;;;;;4.40;2.50;;;;;;;8.02;nan;99705.19;4935320;28;20237;-80
2022/11/03 02:55:20;;;;;;;4.40;3.20;;;;;;;7.98;nan;99707.09;4931053;29;20232;-79
2022/11/03 02:57:54;;;;;;;2.58;2.38;;;;;;;7.96;nan;99693.25;4933096;29;20215;-80
2022/11/03 03:00:20;;;;;;;7.15;2.40;;;;;;;7.96;nan;99692.41;4933030;28;20208;-81
2022/11/03 03:02:55;;;;;;;6.70;2.60;;;;;;;7.94;nan;99682.06;4933760;29;20288;-80
2022/11/03 03:05:24;;;;;;;3.70;2.80;;;;;;;7.92;nan;99678.66;4929807;29;20627;-80
2022/11/03 03:07:55;;;;;;;4.95;2.45;;;;;;;7.90;nan;99682.28;4929558;29;20209;-80
2022/11/03 03:10:24;;;;;;;3.20;2.38;;;;;;;7.86;nan;99680.75;4931119;29;20757;-80
2022/11/03 03:12:56;;;;;;;3.80;3.03;;;;;;;7.80;nan;99665.38;4933069;29;20423;-80
2022/11/03 03:15:33;;;;;;;4.55;2.72;;;;;;;7.74;nan;99664.75;4930711;29;20233;-81
2022/11/03 03:18:09;;;;;;;6.18;2.95;;;;;;;7.66;nan;99658.22;4930299;29;20213;-80
2022/11/03 03:20:53;;;;;;;7.32;2.90;;;;;;;7.60;nan;99648.09;4929042;29;20213;-80
2022/11/03 03:23:22;;;;;;;3.90;3.10;;;;;;;7.51;nan;99646.78;4928067;29;20229;-80
2022/11/03 03:25:52;;;;;;;7.10;3.63;;;;;;;7.46;nan;99641.78;4929313;29;20760;-81
2022/11/03 03:28:28;;;;;;;3.85;2.78;;;;;;;7.43;nan;99631.50;4926882;29;20269;-82
2022/11/03 03:30:56;;;;;;;3.60;2.80;;;;;;;7.40;nan;99621.19;4923464;29;20357;-82
2022/11/03 03:33:24;;;;;;;7.18;2.85;;;;;;;7.38;nan;99628.25;4923025;29;20583;-81
2022/11/03 03:35:51;;;;;;;6.88;3.15;;;;;;;7.37;nan;99628.31;4921437;29;20651;-81
2022/11/03 03:38:26;;;;;;;6.15;3.63;;;;;;;7.38;nan;99622.19;4918382;29;20212;-82
2022/11/03 03:40:56;;;;;;;4.47;3.20;;;;;;;7.31;nan;99616.41;4919491;29;20560;-82
2022/11/03 03:43:25;;;;;;;5.03;4.25;;;;;;;7.28;nan;99616.56;4920812;29;20876;-81
2022/11/03 03:45:53;;;;;;;8.07;3.90;;;;;;;7.26;nan;99613.19;4930121;29;20213;-81
2022/11/03 03:48:19;;;;;;;4.57;3.22;;;;;;;7.29;nan;99607.81;4930344;29;20304;-81
2022/11/03 03:50:46;;;;;;;10.07;4.50;;;;;;;7.30;nan;99609.50;4931282;29;20244;-81
2022/11/03 03:53:14;;;;;;;5.47;4.25;;;;;;;7.35;nan;99606.69;4928670;29;20234;-81
2022/11/03 03:55:44;;;;;;;3.90;3.60;;;;;;;7.41;nan;99596.75;4931684;29;20229;-82
2022/11/03 03:58:12;;;;;;;5.90;3.17;;;;;;;7.46;nan;99599.13;4929481;29;20214;-81
2022/11/03 04:00:39;;;;;;;5.72;4.72;;;;;;;7.49;nan;99607.66;4930325;28;20225;-81
2022/11/03 04:03:05;;;;;;;5.50;3.92;;;;;;;7.53;nan;99611.81;4929858;29;20217;-81
2022/11/03 04:05:31;;;;;;;3.15;2.83;;;;;;;7.56;nan;99605.59;4927793;29;20206;-81
2022/11/03 04:07:57;;;;;;;4.17;2.70;;;;;;;7.54;nan;99610.03;4925772;29;20225;-82
2022/11/03 04:10:23;;;;;;;4.53;3.58;;;;;;;7.52;nan;99609.28;4925537;29;20214;-81
2022/11/03 04:23:50;;;;;;;4.68;3.53;;;;;;;7.42;nan;99580.13;4927834;29;20232;-81
2022/11/03 04:26:18;;;;;;;5.23;3.20;;;;;;;7.41;nan;99586.28;4928442;29;20818;-79
2022/11/03 04:28:44;;;;;;;5.57;3.70;;;;;;;7.37;nan;99582.16;4923198;29;21106;-80
2022/11/03 04:31:12;;;;;;;6.65;3.80;;;;;;;7.37;nan;99578.69;4906495;29;20209;-80
2022/11/03 04:33:38;;;;;;;5.50;3.30;;;;;;;7.32;nan;99577.16;4926611;29;20453;-80
2022/11/03 04:36:14;;;;;;;4.35;3.60;;;;;;;7.31;nan;99580.69;4923939;29;20249;-80
2022/11/03 04:38:39;;;;;;;4.15;3.33;;;;;;;7.27;nan;99576.53;4923066;29;20213;-80
2022/11/03 04:41:13;;;;;;;5.50;3.17;;;;;;;7.25;nan;99580.16;4919833;29;20213;-80
2022/11/03 04:43:39;;;;;;;7.70;4.13;;;;;;;7.24;nan;99579.31;4912628;29;20302;-79
2022/11/03 04:46:08;;;;;;;3.73;3.43;;;;;;;7.28;nan;99580.84;4890354;29;20214;-80
2022/11/03 04:48:34;;;;;;;7.95;3.88;;;;;;;7.28;nan;99565.16;4910338;29;20674;-76
2022/11/03 04:51:08;;;;;;;8.37;5.23;;;;;;;7.27;nan;99566.09;4913072;29;20348;-77
2022/11/03 04:53:33;;;;;;;5.15;3.53;;;;;;;7.27;nan;99568.72;4912184;29;20269;-76
2022/11/03 04:55:59;;;;;;;4.53;3.17;;;;;;;7.27;nan;99563.47;4913922;28;20419;-79
2022/11/03 04:58:28;;;;;;;8.23;4.57;;;;;;;7.30;nan;99568.53;4909606;29;20232;-76
2022/11/03 05:00:58;;;;;;;9.05;4.10;;;;;;;7.30;nan;99562.47;4911270;29;20248;-76
2022/11/03 05:03:30;;;;;;;6.57;3.88;;;;;;;7.29;nan;99560.78;4911946;29;20615;-76
2022/11/03 05:05:57;;;;;;;5.13;3.28;;;;;;;7.28;nan;99562.53;4911538;29;20214;-76
2022/11/03 05:08:23;;;;;;;5.25;4.05;;;;;;;7.24;nan;99565.41;4912898;29;20220;-78
2022/11/03 05:10:49;;;;;;;8.27;3.97;;;;;;;7.18;nan;99555.25;4912076;29;20218;-79
2022/11/03 05:13:26;;;;;;;6.30;4.17;;;;;;;7.14;nan;99559.78;4911527;29;20229;-78
2022/11/03 05:16:01;;;;;;;10.18;4.40;;;;;;;7.16;nan;99565.78;4913341;29;20378;-78
2022/11/03 05:18:31;;;;;;;4.55;3.33;;;;;;;7.18;nan;99563.09;4911010;29;20213;-76
2022/11/03 05:21:06;;;;;;;4.55;3.80;;;;;;;7.17;nan;99556.19;4913481;29;20217;-78
2022/11/03 05:23:39;;;;;;;5.47;4.10;;;;;;;7.11;nan;99553.88;4912167;29;20261;-79
2022/11/03 05:26:10;;;;;;;4.45;3.65;;;;;;;7.08;nan;99539.22;4917022;29;20637;-80
2022/11/03 05:28:43;;;;;;;5.47;3.78;;;;;;;7.02;nan;99537.75;4917859;29;20224;-80
2022/11/03 05:31:34;;;;;;;5.22;4.03;;;;;;;6.92;nan;99525.25;4913348;29;20460;-79
2022/11/03 05:34:01;;;;;;;5.07;3.92;;;;;;;6.80;nan;99524.91;4915869;29;20372;-79
2022/11/03 05:36:32;;;;;;;7.03;3.88;;;;;;;6.71;nan;99511.47;4915405;29;20270;-78
2022/11/03 05:39:09;;;;;;;5.10;4.18;;;;;;;6.66;nan;99516.91;4915712;28;20210;-77
2022/11/03 05:41:35;;;;;;;4.88;3.65;;;;;;;6.64;nan;99517.00;4913121;29;20605;-80
2022/11/03 05:44:11;;;;;;;6.10;4.43;;;;;;;6.66;nan;99503.88;4915179;29;20205;-78
2022/11/03 05:46:36;;;;;;;3.83;3.50;;;;;;;6.64;nan;99500.47;4912651;29;20214;-77
2022/11/03 05:49:02;;;;;;;6.93;4.13;;;;;;;6.62;nan;99495.34;4916083;29;20219;-84
2022/11/03 05:51:33;;;;;;;7.90;3.97;;;;;;;6.66;nan;99503.88;4916732;28;20789;-78
2022/11/03 05:54:02;;;;;;;7.53;3.38;;;;;;;6.72;nan;99495.72;4913665;29;20257;-77
2022/11/03 05:56:30;;;;;;;5.38;3.78;;;;;;;6.74;nan;99496.50;4917725;29;20210;-79
2022/11/03 05:58:56;;;;;;;7.35;4.75;;;;;;;6.77;nan;99495.50;4914171;29;20214;-77
2022/11/03 06:01:34;;;;;;;5.40;3.60;;;;;;;6.78;nan;99490.22;4912083;29;20217;-79
2022/11/03 06:04:12;;;;;;;4.65;3.60;;;;;;;6.81;nan;99484.00;4917100;29;20217;-79
2022/11/03 06:06:37;;;;;;;6.68;4.25;;;;;;;6.80;nan;99485.75;4912785;29;20240;-81
2022/11/03 06:09:30;;;;;;;6.33;3.93;;;;;;;6.82;nan;99476.06;4915900;29;20292;-78
2022/11/03 06:11:58;;;;;;;7.55;5.03;;;;;;;6.87;nan;99479.31;4916734;29;20334;-80
2022/11/03 06:14:26;;;;;;;8.88;4.57;;;;;;;6.94;nan;99478.97;4911629;29;20621;-77
2022/11/03 06:16:56;;;;;;;7.22;4.25;;;;;;;6.98;nan;99472.69;4913640;29;20485;-78
2022/11/03 06:19:41;;;;;;;6.43;4.80;;;;;;;7.00;nan;99465.63;4917475;29;20214;-79
2022/11/03 06:22:26;;;;;;;4.57;4.18;;;;;;;6.99;nan;99477.00;4914874;29;20280;-82
2022/11/03 06:24:58;;;;;;;9.45;4.10;;;;;;;6.95;nan;99468.47;4897013;29;20214;-82
2022/11/03 06:27:27;;;;;;;8.95;7.35;;;;;;;6.96;nan;99466.69;4914110;29;20297;-79
2022/11/03 06:29:58;;;;;;;9.25;4.68;;;;;;;7.00;nan;99457.81;4914675;29;20229;-77
2022/11/03 06:32:24;;;;;;;9.82;5.00;;;;;;;7.03;nan;99460.25;4911485;29;20631;-77
2022/11/03 06:34:54;;;;;;;11.03;5.33;;;;;;;7.09;nan;99462.53;4915340;29;20381;-80
2022/11/03 06:37:23;;;;;;;10.43;5.43;;;;;;;7.14;nan;99468.38;4912522;29;21192;-80
2022/11/03 06:39:52;;;;;;;6.45;4.53;;;;;;;7.19;nan;99460.31;4912364;29;20297;-77
2022/11/03 06:42:21;;;;;;;4.78;4.00;;;;;;;7.20;nan;99459.38;4914509;29;20349;-79
2022/11/03 06:44:48;;;;;;;7.72;4.43;;;;;;;7.21;nan;99453.22;4913847;29;20209;-77
2022/11/03 06:47:22;;;;;;;7.65;4.35;;;;;;;7.18;nan;99453.38;4913350;29;20260;-82
2022/11/03 06:49:50;;;;;;;6.72;3.58;;;;;;;7.17;nan;99457.75;4914167;29;20353;-79
2022/11/03 06:52:23;;;;;;;4.78;3.78;;;;;;;7.21;nan;99448.00;4911712;29;20236;-81
2022/11/03 06:54:54;;;;;;;8.45;3.88;;;;;;;7.26;nan;99435.53;4913448;29;20238;-80
2022/11/03 06:57:20;;;;;;;15.55;5.45;;;;;;;7.30;nan;99437.91;4913192;29;20217;-81
2022/11/03 06:59:45;;;;;;;7.53;5.57;;;;;;;7.38;nan;99437.50;4913573;29;20198;-81
2022/11/03 07:02:40;;;;;;;7.63;4.03;;;;;;;7.44;nan;99425.88;4914800;29;20469;-81
2022/11/03 07:05:19;;;;;;;8.95;5.80;;;;;;;7.56;nan;99427.84;4910707;29;20475;-77
2022/11/03 07:07:45;;;;;;;8.65;4.97;;;;;;;7.62;nan;99430.13;4913945;29;20505;-81
2022/11/03 07:10:11;;;;;;;8.15;4.70;;;;;;;7.66;nan;99418.56;4913048;29;20201;-80
2022/11/03 07:12:36;;;;;;;6.93;4.33;;;;;;;7.72;nan;99412.16;4911579;29;20674;-78
2022/11/03 07:15:03;;;;;;;8.97;4.50;;;;;;;7.75;nan;99420.69;4912049;29;20230;-81
2022/11/03 07:17:29;;;;;;;10.32;3.38;;;;;;;7.81;nan;99414.28;4911717;29;20213;-79
2022/11/03 07:19:54;;;;;;;8.73;5.17;;;;;;;7.85;nan;99423.63;4911213;29;20228;-77
2022/11/03 07:22:24;;;;;;;6.73;5.00;;;;;;;7.89;nan;99412.06;4912683;29;20237;-78
2022/11/03 07:24:58;;;;;;;9.52;4.97;;;;;;;7.94;nan;99407.44;4909595;29;20214;-81
2022/11/03 07:27:35;;;;;;;13.55;5.47;;;;;;;8.01;nan;99412.31;4911294;29;20596;-78
2022/11/03 07:30:06;;;;;;;5.78;4.80;;;;;;;8.06;nan;99418.97;4913904;29;20828;-76
2022/11/03 07:32:33;;;;;;;6.07;5.05;;;;;;;8.10;nan;99401.31;4912550;29;20588;-75
2022/11/03 07:35:24;;;;;;;7.20;4.70;;;;;;;8.16;nan;99407.06;4911290;29;20778;-80
2022/11/03 07:37:51;;;;;;;14.02;5.22;;;;;;;8.22;nan;99405.88;4907520;29;20292;-80
2022/11/03 07:40:22;;;;;;;7.88;5.20;;;;;;;8.31;nan;99407.09;4907560;29;20703;-80
2022/11/03 07:42:49;;;;;;;7.25;4.85;;;;;;;8.40;nan;99414.47;4905982;29;20246;-78
2022/11/03 07:45:41;;;;;;;9.57;5.70;;;;;;;8.49;nan;99403.47;4906063;29;20594;-76
2022/11/03 07:48:18;;;;;;;12.95;8.70;;;;;;;8.58;nan;99396.84;4909028;29;20209;-82
2022/11/03 07:50:44;;;;;;;10.85;8.50;;;;;;;8.67;nan;99384.97;4910709;29;20209;-77
2022/11/03 07:53:15;;;;;;;16.53;9.23;;;;;;;8.77;nan;99388.72;4908674;29;20252;-79
2022/11/03 07:55:44;;;;;;;13.35;9.20;;;;;;;8.85;nan;99383.88;4908761;29;20234;-75
2022/11/03 07:58:22;;;;;;;9.50;6.10;;;;;;;8.94;nan;99372.88;4913102;29;20221;-77
2022/11/03 08:00:49;;;;;;;8.98;6.57;;;;;;;9.04;nan;99373.97;4909184;29;20594;-79
2022/11/03 08:03:26;;;;;;;9.98;5.68;;;;;;;9.16;nan;99361.91;4909152;29;20660;-76
2022/11/03 08:05:52;;;;;;;5.47;4.50;;;;;;;9.27;nan;99363.88;4910452;29;20209;-77
2022/11/03 08:08:29;;;;;;;12.65;5.30;;;;;;;9.39;72.01;99357.84;5119869;27;20553;-78
2022/11/03 08:10:54;;;;;;;12.20;4.33;;;;;;;9.53;71.76;99354.34;5115195;27;20210;-80
2022/11/03 08:13:20;;;;;;;8.37;5.30;;;;;;;9.66;71.74;99349.16;5116992;27;20248;-77
2022/11/03 08:15:45;;;;;;;4.50;4.10;;;;;;;9.79;71.38;99347.44;5114449;27;20203;-77
2022/11/03 08:18:10;;;;;;;7.70;5.20;;;;;;;9.91;71.20;99338.78;5116054;27;20649;-80
2022/11/03 08:20:36;;;;;;;6.80;6.10;;;;;;;10.07;71.02;99343.00;5115781;27;20345;-78
2022/11/03 08:23:01;;;;;;;8.80;5.67;;;;;;;10.24;70.51;99344.56;5117353;27;20694;-78
2022/11/03 08:25:27;;;;;;;9.77;4.97;;;;;;;10.48;70.19;99349.97;5112107;27;20302;-77
2022/11/03 08:27:52;;;;;;;8.10;6.90;;;;;;;10.74;69.87;99349.03;5110494;27;20603;-80
2022/11/03 08:30:17;;;;;;;7.33;5.57;;;;;;;11.22;69.01;99343.94;5114933;27;20198;-77
2022/11/03 08:32:43;;;;;;;7.50;6.40;;;;;;;11.87;67.80;99345.44;5113162;27;20222;-77
2022/11/03 08:35:08;;;;;;;8.87;5.00;;;;;;;12.42;66.33;99331.75;5111296;27;20381;-81
2022/11/03 08:37:34;;;;;;;11.50;7.10;;;;;;;12.81;65.32;99328.72;5115587;27;20197;-77
2022/11/03 08:39:59;;;;;;;9.03;6.40;;;;;;;13.03;64.69;99327.88;5115491;27;20209;-81
2022/11/03 08:42:24;;;;;;;10.50;6.10;;;;;;;13.20;64.43;99326.53;5101313;27;20585;-82
2022/11/03 08:44:50;;;;;;;7.67;6.50;;;;;;;13.33;64.04;99318.53;5095758;27;20243;-78
2022/11/03 08:47:15;;;;;;;12.37;7.43;;;;;;;13.40;63.87;99322.38;5098494;28;20772;-80
2022/11/03 08:49:40;;;;;;;11.70;8.57;;;;;;;13.53;63.62;99318.75;5095860;28;20201;-81
2022/11/03 08:52:06;;;;;;;14.40;9.20;;;;;;;13.71;63.24;99312.81;5092806;28;20680;-82
2022/11/03 08:54:31;;;;;;;25.20;9.30;;;;;;;13.85;62.67;99314.34;5093466;28;20196;-79
2022/11/03 08:56:56;;;;;;;13.60;7.57;;;;;;;14.06;62.09;99302.97;5096647;28;20279;-77
2022/11/03 08:59:22;;;;;;;10.07;7.83;;;;;;;14.18;61.75;99296.69;5095370;28;20633;-79
2022/11/03 09:01:47;;;;;;;8.97;7.17;;;;;;;14.36;61.16;99300.38;5098834;27;20234;-77
2022/11/03 09:04:13;;;;;;;7.60;6.80;;;;;;;14.56;60.35;99301.41;5096441;28;20196;-80
2022/11/03 09:06:40;;;;;;;10.57;6.93;;;;;;;14.59;60.27;99284.44;5095265;28;20251;-77
2022/11/03 09:09:05;;;;;;;9.90;5.93;;;;;;;14.35;60.80;99297.91;5091316;27;20216;-79
2022/11/03 09:11:30;;;;;;;9.77;6.43;;;;;;;14.19;61.27;99290.41;5093961;28;20215;-81
2022/11/03 09:13:56;;;;;;;8.43;5.50;;;;;;;14.32;61.13;99290.22;5097796;28;20213;-77
2022/11/03 09:16:22;;;;;;;9.57;6.80;;;;;;;14.67;60.38;99292.56;5091957;27;20193;-80
2022/11/03 09:18:47;;;;;;;10.97;6.50;;;;;;;14.92;59.73;99288.63;5086315;28;20209;-77
2022/11/03 09:21:13;;;;;;;7.60;6.30;;;;;;;15.09;59.26;99275.72;5082387;28;20202;-77
2022/11/03 09:23:39;;;;;;;6.00;5.15;;;;;;;15.11;59.38;99276.44;5082705;28;20351;-82
2022/11/03 09:26:05;;;;;;;15.83;6.23;;;;;;;15.01;59.70;99273.75;5084920;28;20314;-77
2022/11/03 09:28:31;;;;;;;9.93;6.55;;;;;;;14.74;60.34;99261.97;5080086;28;20240;-78
2022/11/03 09:30:56;;;;;;;8.13;6.10;;;;;;;14.42;61.40;99261.22;5085537;28;20206;-78
2022/11/03 09:33:22;;;;;;;13.10;7.13;;;;;;;14.13;62.12;99264.53;5078789;28;20481;-78
2022/11/03 09:35:47;;;;;;;11.17;7.40;;;;;;;13.82;62.98;99259.13;5080008;28;20311;-80
2022/11/03 09:38:13;;;;;;;9.90;7.40;;;;;;;13.68;63.58;99256.81;5082592;27;20956;-81
2022/11/03 09:40:38;;;;;;;9.60;7.17;;;;;;;13.58;63.97;99251.44;5075011;28;20303;-81
2022/11/03 09:43:03;;;;;;;10.03;8.07;;;;;;;13.44;64.53;99259.63;5080042;27;20235;-77
2022/11/03 09:45:29;;;;;;;9.43;7.00;;;;;;;13.37;64.72;99254.03;5078853;28;20209;-80
2022/11/03 09:47:55;;;;;;;8.17;7.00;;;;;;;13.35;64.97;99249.84;5082753;28;20587;-77
2022/11/03 09:50:20;;;;;;;8.90;8.00;;;;;;;13.31;65.20;99248.41;5077655;27;20208;-78
2022/11/03 09:52:47;;;;;;;14.30;7.23;;;;;;;13.24;65.63;99243.59;5079188;28;20572;-82
2022/11/03 09:55:20;;;;;;;11.55;8.00;;;;;;;13.15;66.09;99235.56;5086083;28;20215;-78
2022/11/03 09:57:46;;;;;;;10.43;6.82;;;;;;;13.14;66.11;99236.53;5081660;28;20215;-80
2022/11/03 10:00:22;;;;;;;9.83;8.30;;;;;;;13.18;66.18;99227.44;5030088;27;20708;-80
2022/11/03 10:02:48;;;;;;;9.18;6.30;;;;;;;13.23;66.25;99222.59;5031327;28;20232;-80
2022/11/03 10:05:19;;;;;;;13.30;6.90;;;;;;;13.28;66.23;99218.69;5033046;28;20226;-83
2022/11/03 10:07:45;;;;;;;7.70;5.95;;;;;;;13.30;66.19;99215.91;5033647;28;20690;-77
2022/11/03 10:10:17;;;;;;;9.80;6.60;;;;;;;13.30;66.41;99209.81;5030694;28;20216;-81
2022/11/03 10:12:42;;;;;;;12.98;8.20;;;;;;;13.30;66.35;99200.09;5034186;28;20286;-81
2022/11/03 10:15:14;;;;;;;11.57;7.30;;;;;;;13.30;66.67;99188.72;5034311;28;20205;-77
2022/11/03 10:17:41;;;;;;;8.68;6.20;;;;;;;13.30;66.76;99179.00;5031720;28;20609;-77
2022/11/03 10:20:15;;;;;;;8.52;7.32;;;;;;;13.32;67.04;99186.78;5033351;28;20214;-77
2022/11/03 10:22:43;;;;;;;7.70;6.75;;;;;;;13.34;66.82;99185.69;5033276;28;20577;-80
2022/11/03 10:25:35;;;;;;;10.43;7.63;;;;;;;13.37;66.84;99174.06;5033788;28;20211;-77
2022/11/03 10:28:19;;;;;;;8.63;6.88;;;;;;;13.39;67.00;99177.38;5032216;28;20320;-80
2022/11/03 10:30:51;;;;;;;8.75;6.63;;;;;;;13.39;66.94;99167.66;5032083;28;20211;-82
2022/11/03 10:33:28;;;;;;;7.82;7.03;;;;;;;13.44;66.80;99149.66;5033812;28;20211;-81
2022/11/03 10:35:56;;;;;;;9.50;7.40;;;;;;;13.45;67.23;99138.16;5034579;28;20203;-78
2022/11/03 10:38:27;;;;;;;11.32;6.88;;;;;;;13.46;67.15;99134.56;5029439;28;20692;-80
2022/11/03 10:40:54;;;;;;;14.63;6.18;;;;;;;13.47;67.25;99133.59;5033033;28;20265;-81
2022/11/03 10:43:19;;;;;;;16.60;8.73;;;;;;;13.50;67.52;99124.56;5035096;28;20238;-78
2022/11/03 10:45:45;;;;;;;10.10;6.57;;;;;;;13.54;67.48;99122.53;5032279;28;20287;-79
2022/11/03 10:48:10;;;;;;;8.17;6.90;;;;;;;13.57;67.21;99111.72;5033250;28;20507;-79
2022/11/03 10:50:39;;;;;;;7.97;7.03;;;;;;;13.61;67.34;99103.41;5031603;28;20672;-79
2022/11/03 10:53:12;;;;;;;9.52;7.82;;;;;;;13.65;67.30;99104.81;5028576;28;20254;-79
2022/11/03 10:55:39;;;;;;;10.00;8.52;;;;;;;13.68;67.22;99094.00;5032812;28;20232;-79
2022/11/03 10:58:05;;;;;;;9.30;5.75;;;;;;;13.72;67.15;99095.44;5033605;28;20201;-79
2022/11/03 11:00:32;;;;;;;10.40;6.40;;;;;;;13.77;67.04;99088.91;5031555;28;20429;-80
2022/11/03 11:02:59;;;;;;;7.90;6.65;;;;;;;13.81;67.33;99091.16;5031843;28;20201;-79
2022/11/03 11:05:25;;;;;;;9.60;6.05;;;;;;;13.81;67.25;99075.31;5031718;28;20590;-79
2022/11/03 11:07:52;;;;;;;11.48;6.55;;;;;;;13.81;67.21;99071.84;5032231;28;20243;-79
2022/11/03 11:10:26;;;;;;;7.50;6.30;;;;;;;13.82;67.52;99079.63;5029175;28;20432;-79
2022/11/03 11:13:03;;;;;;;8.68;6.28;;;;;;;13.84;67.43;99074.22;5030893;28;20231;-79
2022/11/03 11:15:43;;;;;;;7.63;6.35;;;;;;;13.80;67.32;99060.47;5032695;28;20209;-79
2022/11/03 11:18:09;;;;;;;10.85;6.82;;;;;;;13.76;67.79;99058.22;5029697;28;20205;-79
2022/11/03 11:20:41;;;;;;;10.35;7.72;;;;;;;13.76;67.73;99056.41;5032147;28;20424;-79
2022/11/03 11:23:28;;;;;;;8.38;6.20;;;;;;;13.78;67.70;99056.28;5031060;28;20232;-79
2022/11/03 11:26:08;;;;;;;7.60;6.10;;;;;;;13.82;67.57;99045.31;5030825;28;20209;-78
2022/11/03 11:28:42;;;;;;;10.75;6.40;;;;;;;13.85;67.36;99042.44;5031614;28;20750;-78
2022/11/03 11:31:40;;;;;;;10.82;6.85;;;;;;;13.85;67.19;99034.50;5032741;28;20223;-78
2022/11/03 11:34:08;;;;;;;7.57;6.75;;;;;;;13.86;67.42;99019.50;4997327;28;20613;-79
2022/11/03 11:36:42;;;;;;;6.80;5.93;;;;;;;13.88;67.36;99015.75;5032396;28;20207;-79
2022/11/03 11:39:43;;;;;;;14.32;7.55;;;;;;;13.88;67.48;99007.84;5030615;28;20539;-78
2022/11/03 11:42:12;;;;;;;9.15;6.82;;;;;;;13.88;67.62;98999.91;5025137;28;20237;-79
2022/11/03 11:44:53;;;;;;;10.77;7.10;;;;;;;13.88;67.73;98994.63;5032398;28;20206;-79
2022/11/03 11:47:47;;;;;;;12.63;7.72;;;;;;;13.85;68.06;98994.91;5031171;28;20228;-79
2022/11/03 11:50:13;;;;;;;7.97;6.32;;;;;;;13.84;68.30;98981.84;5026213;28;20208;-79
2022/11/03 11:52:45;;;;;;;13.73;6.97;;;;;;;13.85;68.51;98983.50;5026353;28;20255;-79
2022/11/03 11:55:17;;;;;;;11.68;6.53;;;;;;;13.86;68.39;98969.34;5030216;28;20244;-78
2022/11/03 11:57:43;;;;;;;9.55;6.88;;;;;;;13.86;68.31;98953.50;5025902;28;20210;-79
2022/11/03 12:00:24;;;;;;;8.93;5.90;;;;;;;13.90;68.28;98939.03;5026638;28;20223;-79
2022/11/03 12:02:51;;;;;;;7.60;5.97;;;;;;;13.94;68.17;98937.81;5032666;28;20571;-79
2022/11/03 12:05:29;;;;;;;9.82;6.00;;;;;;;14.00;67.91;98917.97;5028650;28;20219;-79
2022/11/03 12:07:55;;;;;;;9.13;5.80;;;;;;;14.06;68.00;98920.03;5030896;28;20236;-80
2022/11/03 12:10:30;;;;;;;9.00;5.53;;;;;;;14.10;67.93;98917.00;5030701;28;20729;-79
2022/11/03 12:12:56;;;;;;;9.05;6.03;;;;;;;14.16;67.72;98913.81;5028852;28;20440;-79
2022/11/03 12:15:46;;;;;;;15.65;6.72;;;;;;;14.20;67.90;98914.34;5026051;28;20199;-79
2022/11/03 12:18:33;;;;;;;8.23;5.82;;;;;;;14.27;67.71;98898.81;5031187;28;20247;-79